createdAt,value
2024-03-11T00:00:46.550Z,20.50
2024-03-11T00:03:14.353Z,18.90
2024-03-11T00:05:44.830Z,23.03
2024-03-11T00:08:17.518Z,19.60
2024-03-11T00:10:46.102Z,20.90
2024-03-11T00:13:17.733Z,20.70
2024-03-11T00:15:46.417Z,20.47
2024-03-11T00:18:15.204Z,18.40
2024-03-11T00:20:42.420Z,17.20
2024-03-11T00:23:09.521Z,19.43
2024-03-11T00:25:37.025Z,17.30
2024-03-11T00:28:04.287Z,16.87
2024-03-11T00:30:31.279Z,18.57
2024-03-11T00:33:00.637Z,18.07
2024-03-11T00:35:27.909Z,18.50
2024-03-11T00:37:54.954Z,17.00
2024-03-11T00:40:24.833Z,16.43
2024-03-11T00:42:55.460Z,15.77
2024-03-11T00:45:25.543Z,18.10
2024-03-11T00:47:53.555Z,14.70
2024-03-11T00:50:21.286Z,14.40
2024-03-11T00:52:49.382Z,16.20
2024-03-11T00:55:17.004Z,18.70
2024-03-11T00:57:44.208Z,17.43
2024-03-11T01:00:13.431Z,15.97
2024-03-11T01:02:42.078Z,15.70
2024-03-11T01:05:10.574Z,17.20
2024-03-11T01:07:45.532Z,16.47
2024-03-11T01:10:18.976Z,15.07
2024-03-11T01:12:46.334Z,13.87
2024-03-11T01:15:13.856Z,19.23
2024-03-11T01:17:42.108Z,17.07
2024-03-11T01:20:11.555Z,17.93
2024-03-11T01:22:38.918Z,18.43
2024-03-11T01:25:07.128Z,15.10
2024-03-11T01:27:34.749Z,19.93
2024-03-11T01:30:02.551Z,18.70
2024-03-11T01:32:29.998Z,20.73
2024-03-11T01:34:59.826Z,17.47
2024-03-11T01:37:27.189Z,20.00
2024-03-11T01:39:54.300Z,18.50
2024-03-11T01:42:21.423Z,20.17
2024-03-11T01:44:50.652Z,19.60
2024-03-11T01:47:24.980Z,18.20
2024-03-11T01:49:54.741Z,18.90
2024-03-11T01:52:33.282Z,18.33
2024-03-11T01:55:01.395Z,23.37
2024-03-11T01:57:29.160Z,17.23
2024-03-11T01:59:56.248Z,15.43
2024-03-11T02:02:25.190Z,15.93
2024-03-11T02:04:52.730Z,19.30
2024-03-11T02:07:22.327Z,17.70
2024-03-11T02:09:49.333Z,17.77
2024-03-11T02:12:19.702Z,15.13
2024-03-11T02:14:48.161Z,20.50
2024-03-11T02:17:17.129Z,18.27
2024-03-11T02:19:44.450Z,17.13
2024-03-11T02:22:11.474Z,16.27
2024-03-11T02:24:39.013Z,18.07
2024-03-11T02:27:06.532Z,18.27
2024-03-11T02:29:33.556Z,17.50
2024-03-11T02:32:00.702Z,16.47
2024-03-11T02:34:28.253Z,17.17
2024-03-11T02:36:56.930Z,18.07
2024-03-11T02:39:24.196Z,19.30
2024-03-11T02:41:51.736Z,18.83
2024-03-11T02:44:19.216Z,18.43
2024-03-11T02:46:46.893Z,17.83
2024-03-11T02:49:15.299Z,17.83
2024-03-11T02:51:43.838Z,16.83
2024-03-11T02:54:11.369Z,16.20
2024-03-11T02:56:39.214Z,18.23
2024-03-11T02:59:06.865Z,19.70
2024-03-11T03:01:34.188Z,15.27
2024-03-11T03:04:01.158Z,15.13
2024-03-11T03:06:29.163Z,15.60
2024-03-11T03:08:56.717Z,15.90
2024-03-11T03:11:24.671Z,18.10
2024-03-11T03:13:51.932Z,17.10
2024-03-11T03:16:20.459Z,17.40
2024-03-11T03:18:47.436Z,15.90
2024-03-11T03:21:14.478Z,15.90
2024-03-11T03:23:41.705Z,15.40
2024-03-11T03:26:09.203Z,18.77
2024-03-11T03:28:36.401Z,20.77
2024-03-11T03:31:05.945Z,19.00
2024-03-11T03:33:33.209Z,19.00
2024-03-11T03:36:00.321Z,20.17
2024-03-11T03:38:27.543Z,16.13
2024-03-11T03:40:54.604Z,15.73
2024-03-11T03:43:21.600Z,16.50
2024-03-11T03:45:49.382Z,16.77
2024-03-11T03:48:17.334Z,17.63
2024-03-11T03:50:44.983Z,20.77
2024-03-11T03:53:12.199Z,14.87
2024-03-11T03:55:40.200Z,17.77
2024-03-11T03:58:08.797Z,14.30
2024-03-11T04:00:36.889Z,15.83
2024-03-11T04:03:07.134Z,21.00
2024-03-11T04:05:34.445Z,15.30
2024-03-11T04:08:01.723Z,17.50
2024-03-11T04:10:29.965Z,15.90
2024-03-11T04:12:59.671Z,17.50
2024-03-11T04:15:27.136Z,16.40
2024-03-11T04:17:55.682Z,15.70
2024-03-11T04:20:29.685Z,15.27
2024-03-11T04:22:58.267Z,15.53
2024-03-11T04:25:28.948Z,17.40
2024-03-11T04:27:57.057Z,14.83
2024-03-11T04:30:31.768Z,20.80
2024-03-11T04:33:00.081Z,14.50
2024-03-11T04:35:30.539Z,17.53
2024-03-11T04:38:00.678Z,21.47
2024-03-11T04:40:29.970Z,17.80
2024-03-11T04:42:57.550Z,14.30
2024-03-11T04:45:27.255Z,20.47
2024-03-11T04:47:55.727Z,16.00
2024-03-11T04:50:26.410Z,15.30
2024-03-11T04:53:12.761Z,16.13
2024-03-11T04:55:39.877Z,17.10
2024-03-11T04:58:07.023Z,15.73
2024-03-11T05:00:34.201Z,20.03
2024-03-11T05:03:04.427Z,19.33
2024-03-11T05:05:34.092Z,14.27
2024-03-11T05:08:01.624Z,17.67
2024-03-11T05:10:28.679Z,20.37
2024-03-11T05:12:55.716Z,18.27
2024-03-11T05:15:23.113Z,17.67
2024-03-11T05:17:50.948Z,18.90
2024-03-11T05:20:20.400Z,19.60
2024-03-11T05:22:51.387Z,21.47
2024-03-11T05:25:19.646Z,16.93
2024-03-11T05:27:48.546Z,18.83
2024-03-11T05:30:17.612Z,16.50
2024-03-11T05:32:45.453Z,18.93
2024-03-11T05:35:12.770Z,17.10
2024-03-11T05:37:39.836Z,19.23
2024-03-11T05:40:08.290Z,17.83
2024-03-11T05:42:35.713Z,19.20
2024-03-11T05:45:04.212Z,18.43
2024-03-11T05:47:31.635Z,18.67
2024-03-11T05:49:58.674Z,20.90
2024-03-11T05:52:29.306Z,21.20
2024-03-11T05:54:58.392Z,22.73
2024-03-11T05:57:30.554Z,18.00
2024-03-11T05:59:57.777Z,19.00
2024-03-11T06:02:27.127Z,19.67
2024-03-11T06:04:54.090Z,23.20
2024-03-11T06:07:25.364Z,20.87
2024-03-11T06:09:53.604Z,19.50
2024-03-11T06:12:23.957Z,21.97
2024-03-11T06:14:52.586Z,24.50
2024-03-11T06:17:20.551Z,23.73
2024-03-11T06:19:48.114Z,29.93
2024-03-11T06:22:17.148Z,26.17
2024-03-11T06:24:44.896Z,30.07
2024-03-11T06:27:12.877Z,22.37
2024-03-11T06:29:40.734Z,23.97
2024-03-11T06:32:09.272Z,29.20
2024-03-11T06:34:36.816Z,28.17
2024-03-11T06:37:04.335Z,23.07
2024-03-11T06:39:33.506Z,24.50
2024-03-11T06:42:02.783Z,27.13
2024-03-11T06:44:38.828Z,24.70
2024-03-11T06:47:12.711Z,25.83
2024-03-11T06:49:40.297Z,27.50
2024-03-11T06:52:08.832Z,29.33
2024-03-11T06:54:37.599Z,24.17
2024-03-11T06:57:07.286Z,26.57
2024-03-11T06:59:35.688Z,24.57
2024-03-11T07:02:03.970Z,24.33
2024-03-11T07:04:33.411Z,25.67
2024-03-11T07:07:01.196Z,25.77
2024-03-11T07:09:29.041Z,27.90
2024-03-11T07:11:56.444Z,26.90
2024-03-11T07:14:24.994Z,28.70
2024-03-11T07:16:57.307Z,27.53
2024-03-11T07:19:28.437Z,29.67
2024-03-11T07:21:55.660Z,25.80
2024-03-11T07:24:22.833Z,25.73
2024-03-11T07:26:49.873Z,26.27
2024-03-11T07:29:16.874Z,27.10
2024-03-11T07:31:45.072Z,30.27
2024-03-11T07:34:12.208Z,23.30
2024-03-11T07:36:40.532Z,32.40
2024-03-11T07:39:07.730Z,28.23
2024-03-11T07:41:35.676Z,23.93
2024-03-11T07:44:02.597Z,26.30
2024-03-11T07:46:30.225Z,26.43
2024-03-11T07:48:57.434Z,24.37
2024-03-11T07:51:25.397Z,23.40
2024-03-11T07:53:52.489Z,25.60
2024-03-11T07:56:20.364Z,26.10
2024-03-11T07:58:47.291Z,25.60
2024-03-11T08:01:14.353Z,26.23
2024-03-11T08:03:42.453Z,24.07
2024-03-11T08:06:10.218Z,27.23
2024-03-11T08:08:37.325Z,26.70
2024-03-11T08:11:05.179Z,21.40
2024-03-11T08:13:32.242Z,29.80
2024-03-11T08:15:59.175Z,29.60
2024-03-11T08:18:26.248Z,26.47
2024-03-11T08:20:55.150Z,30.30
2024-03-11T08:23:23.848Z,30.87
2024-03-11T08:25:52.829Z,27.57
2024-03-11T08:28:19.842Z,27.47
2024-03-11T08:30:47.142Z,58.03
2024-03-11T08:33:16.053Z,42.73
2024-03-11T08:35:43.113Z,27.87
2024-03-11T08:38:10.297Z,28.10
2024-03-11T08:40:39.811Z,32.17
2024-03-11T08:43:07.274Z,25.33
2024-03-11T08:45:35.520Z,32.23
2024-03-11T08:48:02.667Z,27.07
2024-03-11T08:50:29.803Z,28.60
2024-03-11T08:52:56.803Z,29.67
2024-03-11T08:55:23.853Z,28.40
2024-03-11T08:57:51.281Z,32.60
2024-03-11T09:00:19.408Z,41.27
2024-03-11T09:02:47.491Z,35.70
2024-03-11T09:05:19.039Z,31.73
2024-03-11T09:07:47.499Z,27.77
2024-03-11T09:10:15.794Z,34.70
2024-03-11T09:12:44.034Z,28.60
2024-03-11T09:15:19.935Z,28.80
2024-03-11T09:17:52.041Z,26.90
2024-03-11T09:20:22.886Z,28.63
2024-03-11T09:22:57.424Z,29.63
2024-03-11T09:25:27.509Z,25.07
2024-03-11T09:28:03.488Z,28.10
2024-03-11T09:30:35.242Z,25.27
2024-03-11T09:33:02.648Z,23.63
2024-03-11T09:35:33.394Z,28.27
2024-03-11T09:38:01.988Z,24.00
2024-03-11T09:40:30.317Z,26.07
2024-03-11T09:43:00.102Z,28.13
2024-03-11T09:45:31.038Z,28.30
2024-03-11T09:48:00.991Z,40.00
2024-03-11T09:50:36.302Z,32.43
2024-03-11T09:53:05.040Z,27.73
2024-03-11T09:55:37.602Z,23.90
2024-03-11T09:58:12.122Z,22.83
2024-03-11T10:00:51.217Z,24.70
2024-03-11T10:03:22.405Z,22.07
2024-03-11T10:06:04.800Z,22.47
2024-03-11T10:08:33.331Z,23.87
2024-03-11T10:11:23.546Z,23.87
2024-03-11T10:13:54.133Z,22.57
2024-03-11T10:16:23.253Z,23.73
2024-03-11T10:19:02.794Z,21.60
2024-03-11T10:21:35.243Z,18.80
2024-03-11T10:24:03.217Z,23.93
2024-03-11T10:26:34.922Z,21.30
2024-03-11T10:29:02.654Z,24.03
2024-03-11T10:31:34.470Z,21.30
2024-03-11T10:34:22.183Z,18.50
2024-03-11T10:36:58.463Z,24.50
2024-03-11T10:39:32.677Z,23.67
2024-03-11T10:42:02.734Z,21.73
2024-03-11T10:44:34.376Z,21.10
2024-03-11T10:47:16.724Z,22.30
2024-03-11T10:49:59.134Z,19.10
2024-03-11T10:52:27.181Z,20.47
2024-03-11T10:57:40.913Z,22.67
2024-03-11T11:00:18.569Z,23.97
2024-03-11T11:02:56.956Z,20.10
2024-03-11T11:05:35.154Z,19.40
2024-03-11T11:08:04.461Z,25.60
2024-03-11T11:10:37.390Z,21.57
2024-03-11T11:13:06.957Z,22.77
2024-03-11T11:15:38.651Z,28.13
2024-03-11T11:18:11.029Z,24.40
2024-03-11T11:20:43.897Z,18.80
2024-03-11T11:23:13.530Z,21.50
2024-03-11T11:25:43.204Z,19.87
2024-03-11T11:28:41.405Z,20.50
2024-03-11T11:31:34.127Z,16.87
2024-03-11T11:34:08.052Z,18.50
2024-03-11T11:36:38.166Z,20.43
2024-03-11T11:39:13.975Z,17.67
2024-03-11T11:41:53.449Z,18.97
2024-03-11T11:44:30.138Z,17.93
2024-03-11T11:47:16.818Z,17.10
2024-03-11T11:49:48.449Z,19.30
2024-03-11T11:52:15.920Z,18.70
2024-03-11T11:54:44.164Z,16.00
2024-03-11T11:57:17.788Z,14.60
2024-03-11T11:59:58.003Z,17.60
2024-03-11T12:02:30.500Z,19.70
2024-03-11T12:05:01.866Z,19.20
2024-03-11T12:07:29.919Z,17.10
2024-03-11T12:10:06.245Z,19.17
2024-03-11T12:12:35.341Z,15.23
2024-03-11T12:15:05.008Z,18.13
2024-03-11T12:17:33.440Z,15.33
2024-03-11T12:20:17.032Z,17.90
2024-03-11T12:22:44.293Z,18.67
2024-03-11T12:25:14.355Z,17.80
2024-03-11T12:27:44.417Z,19.30
2024-03-11T12:30:25.402Z,19.77
2024-03-11T12:32:59.617Z,20.10
2024-03-11T12:35:30.187Z,17.77
2024-03-11T12:37:59.366Z,18.13
2024-03-11T12:40:30.841Z,19.60
2024-03-11T12:43:01.566Z,20.40
2024-03-11T12:45:44.938Z,21.17
2024-03-11T12:48:17.274Z,14.63
2024-03-11T12:50:49.557Z,15.00
2024-03-11T12:53:18.295Z,13.80
2024-03-11T12:55:45.843Z,13.97
2024-03-11T12:58:25.868Z,12.33
2024-03-11T13:01:10.441Z,13.90
2024-03-11T13:03:41.143Z,15.37
2024-03-11T13:06:13.780Z,15.17
2024-03-11T13:08:45.321Z,13.27
2024-03-11T13:11:17.570Z,13.93
2024-03-11T13:13:47.219Z,13.70
2024-03-11T13:16:18.142Z,13.77
2024-03-11T13:18:49.897Z,12.40
2024-03-11T13:21:21.807Z,13.40
2024-03-11T13:23:51.004Z,13.80
2024-03-11T13:26:23.835Z,13.73
2024-03-11T13:28:51.617Z,13.20
2024-03-11T13:31:19.721Z,14.47
2024-03-11T13:33:48.298Z,13.60
2024-03-11T13:36:15.407Z,15.73
2024-03-11T13:38:43.213Z,14.27
2024-03-11T13:41:12.387Z,15.43
2024-03-11T13:43:41.308Z,15.13
2024-03-11T13:46:14.619Z,13.03
2024-03-11T13:48:43.367Z,12.77
2024-03-11T13:51:11.524Z,13.57
2024-03-11T13:53:38.749Z,13.50
2024-03-11T13:56:07.649Z,10.70
2024-03-11T13:58:36.622Z,11.77
2024-03-11T14:01:04.560Z,9.43
2024-03-11T14:03:31.613Z,9.43
2024-03-11T14:05:58.783Z,9.90
2024-03-11T14:08:25.770Z,9.63
2024-03-11T14:10:52.891Z,10.13
2024-03-11T14:13:20.098Z,10.77
2024-03-11T14:15:47.379Z,10.47
2024-03-11T14:18:15.173Z,10.23
2024-03-11T14:20:42.387Z,9.23
2024-03-11T14:23:10.687Z,11.03
2024-03-11T14:25:38.866Z,12.00
2024-03-11T14:28:07.899Z,11.80
2024-03-11T14:30:39.190Z,12.37
2024-03-11T14:33:09.480Z,14.90
2024-03-11T14:35:39.622Z,13.50
2024-03-11T14:38:09.975Z,13.17
2024-03-11T14:40:44.514Z,10.97
2024-03-11T14:43:14.662Z,11.97
2024-03-11T14:45:42.299Z,13.07
2024-03-11T14:48:17.315Z,17.97
2024-03-11T14:50:47.198Z,12.30
2024-03-11T14:53:15.205Z,12.87
2024-03-11T14:55:43.596Z,13.00
2024-03-11T14:58:13.747Z,13.23
2024-03-11T15:00:50.783Z,12.13
2024-03-11T15:03:21.617Z,17.03
2024-03-11T15:05:49.670Z,11.83
2024-03-11T15:08:21.724Z,13.83
2024-03-11T15:10:52.701Z,17.50
2024-03-11T15:13:23.157Z,15.40
2024-03-11T15:15:52.599Z,12.87
2024-03-11T15:18:20.453Z,12.63
2024-03-11T15:20:49.787Z,13.03
2024-03-11T15:23:26.344Z,13.50
2024-03-11T15:25:55.640Z,16.60
2024-03-11T15:28:26.008Z,18.37
2024-03-11T15:30:54.761Z,14.83
2024-03-11T15:33:22.904Z,15.77
2024-03-11T15:35:51.608Z,17.50
2024-03-11T15:38:21.131Z,14.07
2024-03-11T15:40:49.970Z,12.07
2024-03-11T15:43:17.503Z,17.40
2024-03-11T15:45:46.212Z,14.90
2024-03-11T15:48:14.603Z,14.87
2024-03-11T15:50:41.971Z,18.60
2024-03-11T15:53:11.173Z,21.43
2024-03-11T15:55:38.957Z,18.73
2024-03-11T15:58:06.687Z,34.47
2024-03-11T16:00:36.805Z,45.20
2024-03-11T16:03:09.723Z,25.10
2024-03-11T16:05:39.441Z,21.23
2024-03-11T16:08:16.412Z,23.80
2024-03-11T16:10:45.197Z,19.00
2024-03-11T16:13:14.530Z,20.40
2024-03-11T16:15:42.195Z,19.93
2024-03-11T16:18:14.121Z,18.53
2024-03-11T16:20:42.238Z,19.73
2024-03-11T16:23:10.123Z,19.53
2024-03-11T16:25:37.484Z,16.53
2024-03-11T16:28:08.619Z,17.13
2024-03-11T16:30:36.002Z,17.67
2024-03-11T16:33:04.284Z,17.43
2024-03-11T16:35:37.946Z,19.87
2024-03-11T16:38:11.434Z,19.53
2024-03-11T16:40:40.255Z,17.40
2024-03-11T16:43:11.771Z,19.27
2024-03-11T16:45:43.369Z,20.40
2024-03-11T16:48:14.601Z,20.00
2024-03-11T16:50:46.411Z,26.67
2024-03-11T16:53:15.205Z,24.63
2024-03-11T16:55:43.131Z,24.60
2024-03-11T16:58:14.890Z,31.37
2024-03-11T17:00:44.118Z,32.27
2024-03-11T17:03:11.156Z,26.13
2024-03-11T17:05:39.603Z,28.17
2024-03-11T17:08:09.795Z,25.43
2024-03-11T17:10:40.248Z,28.50
2024-03-11T17:13:08.666Z,28.97
2024-03-11T17:15:37.119Z,27.00
2024-03-11T17:18:08.504Z,23.83
2024-03-11T17:20:40.991Z,32.03
2024-03-11T17:23:11.438Z,26.80
2024-03-11T17:25:41.909Z,25.30
2024-03-11T17:28:14.120Z,25.00
2024-03-11T17:30:42.377Z,23.63
2024-03-11T17:33:10.516Z,30.30
2024-03-11T17:35:40.671Z,45.10
2024-03-11T17:38:10.197Z,59.93
2024-03-11T17:40:38.315Z,56.57
2024-03-11T17:43:09.240Z,33.83
2024-03-11T17:45:37.604Z,23.30
2024-03-11T17:48:05.033Z,21.23
2024-03-11T17:50:32.541Z,28.57
2024-03-11T17:52:59.815Z,23.87
2024-03-11T17:55:27.913Z,25.30
2024-03-11T17:57:56.637Z,20.00
2024-03-11T18:00:25.489Z,23.53
2024-03-11T18:02:53.752Z,21.27
2024-03-11T18:05:21.157Z,22.07
2024-03-11T18:07:48.218Z,23.63
2024-03-11T18:10:18.765Z,20.73
2024-03-11T18:12:52.457Z,20.60
2024-03-11T18:15:20.978Z,20.00
2024-03-11T18:17:49.450Z,21.70
2024-03-11T18:20:24.016Z,22.77
2024-03-11T18:22:52.554Z,23.70
2024-03-11T18:25:24.824Z,30.27
2024-03-11T18:27:59.113Z,33.03
2024-03-11T18:30:27.977Z,34.93
2024-03-11T18:33:00.702Z,90.20
2024-03-11T18:35:28.189Z,142.97
2024-03-11T18:38:00.438Z,62.23
2024-03-11T18:40:27.658Z,43.77
2024-03-11T18:42:55.515Z,45.50
2024-03-11T18:45:24.499Z,41.93
2024-03-11T18:47:52.081Z,43.17
2024-03-11T18:50:20.670Z,44.33
2024-03-11T18:52:58.411Z,35.70
2024-03-11T18:55:31.062Z,38.07
2024-03-11T18:57:59.921Z,39.73
2024-03-11T19:00:28.037Z,44.53
2024-03-11T19:02:58.336Z,81.40
2024-03-11T19:05:26.837Z,65.83
2024-03-11T19:07:55.685Z,38.53
2024-03-11T19:10:32.497Z,30.60
2024-03-11T19:13:00.351Z,31.90
2024-03-11T19:15:29.247Z,31.40
2024-03-11T19:17:57.115Z,33.93
2024-03-11T19:20:28.636Z,37.57
2024-03-11T19:22:57.174Z,32.13
2024-03-11T19:25:25.538Z,36.37
2024-03-11T19:27:54.180Z,35.27
2024-03-11T19:30:27.107Z,33.40
2024-03-11T19:32:54.950Z,31.10
2024-03-11T19:35:22.964Z,28.17
2024-03-11T19:38:17.409Z,28.97
2024-03-11T19:41:27.030Z,30.80
2024-03-11T19:44:35.471Z,33.40
2024-03-11T19:47:59.845Z,32.30
2024-03-11T19:51:04.456Z,33.67
2024-03-11T19:54:14.903Z,34.00
2024-03-11T19:57:39.687Z,44.97
2024-03-11T20:01:05.482Z,118.87
2024-03-11T20:04:19.928Z,37.50
2024-03-11T20:06:56.014Z,34.63
2024-03-11T20:10:17.448Z,41.37
2024-03-11T20:13:37.516Z,33.30
2024-03-11T20:16:49.005Z,35.30
2024-03-11T20:20:09.445Z,32.63
2024-03-11T20:23:42.947Z,31.27
2024-03-11T20:26:32.850Z,30.87
2024-03-11T20:29:26.994Z,35.70
2024-03-11T20:32:01.384Z,28.80
2024-03-11T20:34:28.481Z,25.17
2024-03-11T20:36:55.750Z,26.80
2024-03-11T20:39:24.922Z,24.60
2024-03-11T20:41:54.018Z,21.30
2024-03-11T20:44:22.093Z,23.70
2024-03-11T20:46:49.180Z,22.60
2024-03-11T20:49:18.424Z,69.17
2024-03-11T20:51:45.547Z,63.73
2024-03-11T20:54:12.738Z,25.70
2024-03-11T20:56:39.768Z,24.63
2024-03-11T20:59:07.747Z,21.33
2024-03-11T21:01:35.768Z,20.50
2024-03-11T21:04:02.988Z,18.33
2024-03-11T21:06:31.228Z,19.17
2024-03-11T21:08:58.253Z,18.73
2024-03-11T21:11:25.462Z,21.50
2024-03-11T21:13:52.528Z,21.03
2024-03-11T21:16:20.550Z,19.70
2024-03-11T21:18:48.530Z,17.20
2024-03-11T21:21:24.548Z,19.90
2024-03-11T21:24:07.708Z,17.60
2024-03-11T21:27:01.491Z,18.87
2024-03-11T21:29:30.198Z,20.50
2024-03-11T21:31:57.183Z,26.67
2024-03-11T21:34:24.241Z,24.63
2024-03-11T21:36:51.557Z,28.13
2024-03-11T21:39:18.870Z,25.80
2024-03-11T21:41:45.948Z,35.73
2024-03-11T21:44:15.771Z,34.63
2024-03-11T21:46:44.280Z,44.10
2024-03-11T21:49:11.891Z,42.17
2024-03-11T21:51:39.520Z,169.27
2024-03-11T21:54:07.935Z,61.90
2024-03-11T21:56:34.932Z,43.80
2024-03-11T21:59:02.166Z,44.17
2024-03-11T22:01:30.542Z,36.73
2024-03-11T22:03:57.758Z,43.73
2024-03-11T22:06:24.738Z,48.67
2024-03-11T22:08:54.999Z,42.53
2024-03-11T22:11:22.638Z,50.40
2024-03-11T22:13:51.299Z,42.97
2024-03-11T22:16:18.427Z,41.10
2024-03-11T22:18:45.557Z,42.47
2024-03-11T22:21:12.581Z,35.10
2024-03-11T22:23:39.873Z,31.83
2024-03-11T22:26:07.731Z,40.53
2024-03-11T22:28:34.942Z,40.30
2024-03-11T22:31:01.875Z,32.30
2024-03-11T22:33:28.971Z,27.83
2024-03-11T22:35:55.993Z,25.90
2024-03-11T22:38:24.544Z,31.37
2024-03-11T22:40:51.670Z,25.13
2024-03-11T22:43:18.722Z,25.90
2024-03-11T22:45:46.430Z,18.93
2024-03-11T22:48:13.435Z,18.23
2024-03-11T22:50:40.735Z,21.00
2024-03-11T22:53:07.752Z,20.97
2024-03-11T22:55:36.234Z,18.47
2024-03-11T22:58:03.430Z,19.17
2024-03-11T23:00:36.122Z,20.50
2024-03-11T23:03:05.336Z,15.97
2024-03-11T23:05:33.525Z,18.23
2024-03-11T23:08:01.148Z,18.40
2024-03-11T23:10:29.686Z,16.70
2024-03-11T23:12:56.773Z,17.07
2024-03-11T23:15:24.809Z,15.60
2024-03-11T23:17:52.603Z,18.37
2024-03-11T23:20:22.444Z,16.50
2024-03-11T23:22:50.343Z,21.57
2024-03-11T23:25:17.508Z,23.93
2024-03-11T23:27:45.600Z,20.13
2024-03-11T23:30:14.414Z,19.10
2024-03-11T23:32:41.813Z,18.17
2024-03-11T23:35:09.481Z,19.17
2024-03-11T23:37:36.582Z,21.13
2024-03-11T23:40:11.489Z,19.07
2024-03-11T23:42:38.462Z,19.80
2024-03-11T23:45:06.387Z,20.07
2024-03-11T23:47:33.404Z,17.57
2024-03-11T23:50:02.223Z,17.80
2024-03-11T23:52:29.268Z,20.73
2024-03-11T23:54:56.249Z,18.63
2024-03-11T23:57:23.298Z,17.73
2024-03-11T23:59:50.823Z,16.13
